Nakhon Si Thammarat, Thailand

12:45 PM ICT on August 01, 2014 (GMT +0700)
Nakhon Si Thammarat (VTSF) Elev 13 ft | 8.54 °N, 99.94 °E | Change Station

Current weather conditions updated 45 minutes ago

Mostly Cloudy
Mostly Cloudy
91 °F
Feels Like 98 °F
N
4
Wind Variable Wind from East

Today is forecast to be nearly the same temperature as yesterday.

Today
High -- | Low -- °F
--% Chance of Precip.
Yesterday
High -- | Low -- °F
Precip. -- in
6:11 AM 6:41 PM
Waxing Crescent, 24% visible
Pressure 29.77 in
Visibility 6.2 miles
Clouds Few 1800 ft
Mostly Cloudy 30000 ft
Heat Index 98 °F
Dew Point 72 °F
Humidity 52%
Rainfall 0.00 in
Snow Depth Not available.
UV 9 out of 12
Pollen Not available.
Air Quality Not available.
Flu Activity Not available.
METAR VTSF 010500Z 10003KT 030V150 9999 FEW018 BKN300 33/22 Q1008 A2977 INFO F / RWY 19

More Conditions Fewer Conditions

Pressure 29.77 in
Visibility 6.2 miles
Clouds Few 1800 ft
Mostly Cloudy 30000 ft
Heat Index 98 °F
Dew Point 72 °F
Humidity 52%
Rainfall 0.00 in
Snow Depth Not available.
UV 9 out of 12
Pollen Not available.
Air Quality Not available.
Flu Activity Not available.
METAR VTSF 010500Z 10003KT 030V150 9999 FEW018 BKN300 33/22 Q1008 A2977 INFO F / RWY 19

More Conditions Fewer Conditions

10-Day Weather Forecast

Almanac

Astronomy

Aug. 01, 2014 Rise Set
Actual Time 6:11 AM ICT 6:41 PM ICT
Civil Twilight 5:49 AM ICT 7:03 PM ICT
Nautical Twilight 5:23 AM ICT 7:29 PM ICT
Astronomical Twilight 4:57 AM ICT 7:55 PM ICT
Moon 10:01 AM ICT 10:17 PM ICT
Length of Visible Light 13h 13m
Length of Day
12h 29m
Tomorrow will be 0m 21s shorter.
Waxing Crescent, 24% of the Moon is Illuminated
Today
Waxing Crescent
Aug 3
First Quarter
Aug 10
Full
Aug 17
Last Quarter
Aug 25
New

Yesterday's Extremes

Country Highs Country Lows

Community

WunderPhotos

Upload Photos

1,739,520 photos uploaded!

Nearby

Snow Depth

Not available.

Earthquake Activity

City Distance Mag. Time & Date
No recent earthquake activity has been reported nearby.
Minimum magnitude displayed is 2.5.

Coastal Water Temperatures

Place Temperature
No Stations Reporting

Nearby Weather Stations

There are no personal weather stations in this area.